TimeEDT,TemperatureF,Dew PointF,Humidity,Sea Level PressureIn,VisibilityMPH,Wind Direction,Wind SpeedMPH,Gust SpeedMPH,PrecipitationIn,Events,Conditions,WindDirDegrees,DateUTC
12:54 AM,46.9,45.0,93,30.14,10.0,Calm,Calm,-,N/A,,Clear,0,2013-10-08 04:54:00
1:54 AM,46.9,45.0,93,30.15,10.0,Calm,Calm,-,N/A,,Clear,0,2013-10-08 05:54:00
2:54 AM,46.9,45.0,93,30.16,10.0,Calm,Calm,-,N/A,,Clear,0,2013-10-08 06:54:00
3:54 AM,48.0,45.0,89,30.16,10.0,Calm,Calm,-,N/A,,Clear,0,2013-10-08 07:54:00
4:54 AM,46.9,45.0,93,30.17,10.0,Calm,Calm,-,0.01,,Clear,0,2013-10-08 08:54:00
5:54 AM,46.0,44.1,93,30.18,10.0,Calm,Calm,-,N/A,,Clear,0,2013-10-08 09:54:00
6:54 AM,46.0,45.0,96,30.20,9.0,Calm,Calm,-,N/A,,Clear,0,2013-10-08 10:54:00
7:54 AM,46.0,45.0,96,30.21,10.0,Calm,Calm,-,N/A,,Clear,0,2013-10-08 11:54:00
8:54 AM,48.0,46.9,96,30.23,10.0,Calm,Calm,-,N/A,,Clear,0,2013-10-08 12:54:00
9:54 AM,53.1,48.9,86,30.25,10.0,Calm,Calm,-,N/A,,Clear,0,2013-10-08 13:54:00
10:54 AM,60.1,51.1,72,30.24,10.0,SSW,3.5,-,N/A,,Clear,210,2013-10-08 14:54:00
11:54 AM,64.9,48.9,56,30.24,10.0,WSW,6.9,-,N/A,,Clear,250,2013-10-08 15:54:00
12:54 PM,68.0,46.9,47,30.22,10.0,SSW,3.5,-,N/A,,Clear,210,2013-10-08 16:54:00
1:54 PM,70.0,46.0,42,30.20,10.0,Variable,3.5,-,N/A,,Clear,0,2013-10-08 17:54:00
2:54 PM,71.1,46.9,42,30.18,10.0,Variable,3.5,-,N/A,,Clear,0,2013-10-08 18:54:00
3:54 PM,72.0,46.9,41,30.17,10.0,NE,4.6,-,N/A,,Clear,40,2013-10-08 19:54:00
4:54 PM,72.0,48.0,43,30.17,10.0,ESE,6.9,-,N/A,,Clear,120,2013-10-08 20:54:00
5:54 PM,71.1,46.9,42,30.17,10.0,SSE,6.9,-,N/A,,Clear,150,2013-10-08 21:54:00
6:54 PM,66.9,48.0,51,30.18,10.0,SE,4.6,-,N/A,,Clear,140,2013-10-08 22:54:00
7:54 PM,62.1,46.9,58,30.19,10.0,SE,3.5,-,N/A,,Clear,130,2013-10-08 23:54:00
8:54 PM,55.9,48.9,77,30.20,10.0,Calm,Calm,-,N/A,,Clear,0,2013-10-09 00:54:00
9:54 PM,54.0,48.9,83,30.21,10.0,Calm,Calm,-,N/A,,Clear,0,2013-10-09 01:54:00
10:54 PM,53.1,48.0,83,30.20,10.0,East,3.5,-,N/A,,Clear,80,2013-10-09 02:54:00
11:54 PM,52.0,48.0,86,30.20,10.0,East,4.6,-,N/A,,Clear,90,2013-10-09 03:54:00